Time;durP1;ratioP1;P1;durP2;ratioP2;P2;SDS_P1;SDS_P2;PMS_P1;PMS_P2;Temp;Humidity;BMP_temperature;BMP_pressure;BME280_temperature;BME280_humidity;BME280_pressure;Samples;Min_cycle;Max_cycle;Signal;HPM_P1;HPM_P2
2022/03/09 00:00:36;;;;;;;14.63;9.50;;;;;;;;;;5012056;28;20223;-78
2022/03/09 00:03:03;;;;;;;14.33;9.17;;;;;;;;;;5011783;28;20207;-78
2022/03/09 00:05:31;;;;;;;14.20;9.33;;;;;;;;;;5011493;28;20195;-77
2022/03/09 00:07:59;;;;;;;15.83;10.07;;;;;;;;;;5011413;28;20257;-76
2022/03/09 00:10:28;;;;;;;13.60;9.80;;;;;;;;;;5011445;28;20199;-78
2022/03/09 00:12:58;;;;;;;12.93;9.57;;;;;;;;;;5011257;28;20216;-77
2022/03/09 00:15:37;;;;;;;15.00;9.33;;;;;;;;;;5011239;28;20219;-77
2022/03/09 00:18:05;;;;;;;9.80;8.40;;;;;;;;;;5011561;28;20292;-77
2022/03/09 00:20:33;;;;;;;11.93;8.37;;;;;;;;;;5011330;28;20210;-77
2022/03/09 00:23:00;;;;;;;15.27;9.43;;;;;;;;;;5009880;28;20213;-77
2022/03/09 00:25:29;;;;;;;13.23;8.60;;;;;;;;;;5014729;28;20374;-77
2022/03/09 00:27:57;;;;;;;12.50;8.87;;;;;;;;;;5014909;28;20241;-77
2022/03/09 00:30:24;;;;;;;15.33;9.63;;;;;;;;;;5015062;28;20206;-77
2022/03/09 00:32:52;;;;;;;12.70;8.67;;;;;;;;;;5015027;28;20226;-77
2022/03/09 00:35:19;;;;;;;13.43;8.60;;;;;;;;;;5015518;28;20229;-77
2022/03/09 00:37:46;;;;;;;13.17;9.53;;;;;;;;;;5014091;28;20297;-77
2022/03/09 00:40:13;;;;;;;12.67;9.30;;;;;;;;;;5015798;28;20203;-77
2022/03/09 00:42:42;;;;;;;12.37;8.80;;;;;;;;;;5017770;28;20418;-77
2022/03/09 00:45:10;;;;;;;12.90;8.73;;;;;;;;;;5015207;28;20256;-76
2022/03/09 00:47:37;;;;;;;11.23;8.23;;;;;;;;;;5014204;28;20301;-77
2022/03/09 00:50:05;;;;;;;12.87;9.13;;;;;;;;;;5014830;28;20239;-77
2022/03/09 00:52:32;;;;;;;13.67;8.53;;;;;;;;;;5013374;28;20253;-77
2022/03/09 00:55:00;;;;;;;14.30;8.60;;;;;;;;;;5012743;28;20233;-79
2022/03/09 00:57:28;;;;;;;11.27;8.40;;;;;;;;;;5012627;28;20673;-77
2022/03/09 00:59:56;;;;;;;11.30;8.30;;;;;;;;;;5012412;28;20293;-77
2022/03/09 01:02:23;;;;;;;12.83;8.33;;;;;;;;;;5014522;28;20234;-77
2022/03/09 01:04:51;;;;;;;11.60;8.10;;;;;;;;;;5014001;28;20199;-77
2022/03/09 01:07:18;;;;;;;10.97;7.93;;;;;;;;;;5012795;28;20221;-77
2022/03/09 01:09:45;;;;;;;13.43;9.07;;;;;;;;;;5014183;28;20209;-77
2022/03/09 01:12:12;;;;;;;14.07;9.90;;;;;;;;;;5014316;28;20235;-77
2022/03/09 01:14:40;;;;;;;15.47;10.23;;;;;;;;;;5013351;28;20754;-78
2022/03/09 01:17:08;;;;;;;13.97;9.03;;;;;;;;;;5013341;28;20233;-77
2022/03/09 01:19:36;;;;;;;14.43;9.87;;;;;;;;;;5013717;28;20253;-77
2022/03/09 01:22:03;;;;;;;14.33;9.17;;;;;;;;;;5013920;28;20296;-77
2022/03/09 01:24:30;;;;;;;13.67;9.80;;;;;;;;;;5013832;28;20206;-77
2022/03/09 01:26:57;;;;;;;17.00;10.23;;;;;;;;;;5013259;28;20234;-77
2022/03/09 01:29:25;;;;;;;17.53;10.27;;;;;;;;;;5014014;28;20208;-77
2022/03/09 01:31:52;;;;;;;14.10;9.60;;;;;;;;;;5013365;28;20231;-77
2022/03/09 01:34:21;;;;;;;13.87;9.70;;;;;;;;;;5013720;28;20214;-77
2022/03/09 01:36:48;;;;;;;12.90;9.23;;;;;;;;;;5012624;28;20226;-77
2022/03/09 01:39:15;;;;;;;13.97;9.37;;;;;;;;;;5013973;28;20213;-77
2022/03/09 01:41:42;;;;;;;15.17;9.63;;;;;;;;;;5013477;28;20261;-77
2022/03/09 01:44:10;;;;;;;13.70;8.90;;;;;;;;;;5013405;28;20230;-77
2022/03/09 01:46:38;;;;;;;12.73;8.93;;;;;;;;;;5012543;28;20195;-77
2022/03/09 01:49:05;;;;;;;13.73;9.10;;;;;;;;;;5013049;28;20245;-77
2022/03/09 01:51:35;;;;;;;12.87;9.23;;;;;;;;;;5012756;28;20240;-77
2022/03/09 01:54:02;;;;;;;13.00;9.33;;;;;;;;;;5013502;28;20218;-77
2022/03/09 01:56:30;;;;;;;14.30;9.70;;;;;;;;;;5012246;28;20250;-77
2022/03/09 01:58:58;;;;;;;13.37;9.43;;;;;;;;;;5012366;28;20216;-77
2022/03/09 02:01:25;;;;;;;13.57;9.20;;;;;;;;;;5012649;28;20312;-78
2022/03/09 02:03:52;;;;;;;13.67;9.07;;;;;;;;;;5012919;28;20218;-77
2022/03/09 02:06:20;;;;;;;12.83;9.30;;;;;;;;;;5013492;28;20213;-77
2022/03/09 02:11:34;;;;;;;13.00;9.10;;;;;;;;;;5010954;28;20233;-77
2022/03/09 02:14:01;;;;;;;12.57;8.90;;;;;;;;;;5012355;28;20391;-77
2022/03/09 02:16:29;;;;;;;13.50;8.67;;;;;;;;;;5012376;28;20234;-76
2022/03/09 02:18:56;;;;;;;15.23;9.20;;;;;;;;;;5012067;28;20237;-77
2022/03/09 02:21:25;;;;;;;12.73;8.77;;;;;;;;;;5012746;28;20721;-77
2022/03/09 02:23:55;;;;;;;12.63;8.73;;;;;;;;;;5012330;28;20302;-77
2022/03/09 02:26:22;;;;;;;11.50;8.73;;;;;;;;;;5010563;28;20281;-77
2022/03/09 02:28:50;;;;;;;14.80;9.00;;;;;;;;;;5011478;28;20207;-77
2022/03/09 02:31:17;;;;;;;12.47;9.03;;;;;;;;;;5012616;28;20245;-77
2022/03/09 02:33:45;;;;;;;14.40;8.87;;;;;;;;;;5012326;28;20222;-77
2022/03/09 02:36:12;;;;;;;13.57;9.63;;;;;;;;;;5012849;28;20226;-77
2022/03/09 02:38:39;;;;;;;12.27;8.53;;;;;;;;;;5011778;28;20209;-76
2022/03/09 02:41:08;;;;;;;12.17;8.17;;;;;;;;;;5012580;28;20286;-77
2022/03/09 02:43:35;;;;;;;14.97;9.43;;;;;;;;;;5011461;28;20294;-77
2022/03/09 02:46:03;;;;;;;10.47;7.70;;;;;;;;;;5014992;28;20213;-77
2022/03/09 02:48:30;;;;;;;11.97;8.50;;;;;;;;;;5014992;28;20249;-77
2022/03/09 02:50:57;;;;;;;14.20;7.90;;;;;;;;;;5013007;28;20322;-77
2022/03/09 02:53:24;;;;;;;13.23;8.80;;;;;;;;;;5026226;28;20225;-77
2022/03/09 02:55:52;;;;;;;13.10;9.17;;;;;;;;;;5027706;28;20227;-78
2022/03/09 02:58:20;;;;;;;11.40;7.77;;;;;;;;;;5008809;28;20285;-77
2022/03/09 03:00:53;;;;;;;13.43;9.17;;;;;;;;;;5012004;28;20294;-77
2022/03/09 03:03:20;;;;;;;11.83;8.63;;;;;;;;;;5011744;28;20199;-77
2022/03/09 03:05:48;;;;;;;13.23;8.70;;;;;;;;;;5007199;28;20708;-77
2022/03/09 03:08:15;;;;;;;12.47;8.50;;;;;;;;;;5011422;28;20201;-77
2022/03/09 03:10:43;;;;;;;14.17;9.87;;;;;;;;;;5011986;28;20226;-77
2022/03/09 03:13:10;;;;;;;15.47;9.33;;;;;;;;;;5011748;28;20199;-76
2022/03/09 03:15:39;;;;;;;14.10;9.40;;;;;;;;;;5009336;28;20254;-77
2022/03/09 03:18:06;;;;;;;12.07;8.10;;;;;;;;;;5011103;28;20206;-77
2022/03/09 03:20:34;;;;;;;13.93;8.83;;;;;;;;;;5009449;28;20242;-77
2022/03/09 03:23:01;;;;;;;13.00;8.63;;;;;;;;;;5012062;28;20294;-77
2022/03/09 03:25:28;;;;;;;9.73;8.47;;;;;;;;;;5012231;28;20273;-77
2022/03/09 03:27:55;;;;;;;11.63;8.07;;;;;;;;;;5011408;28;20297;-77
2022/03/09 03:30:23;;;;;;;15.17;9.17;;;;;;;;;;5011840;28;20220;-76
2022/03/09 03:32:51;;;;;;;13.73;9.13;;;;;;;;;;5011830;28;20265;-76
2022/03/09 03:35:19;;;;;;;12.17;8.60;;;;;;;;;;5011430;28;20226;-77
2022/03/09 03:37:46;;;;;;;14.23;8.90;;;;;;;;;;5011707;28;20716;-77
2022/03/09 03:40:14;;;;;;;12.17;8.27;;;;;;;;;;5011735;28;20294;-77
2022/03/09 03:42:41;;;;;;;14.07;9.30;;;;;;;;;;5013837;28;20230;-76
2022/03/09 03:45:09;;;;;;;13.43;8.40;;;;;;;;;;5015039;28;20202;-77
2022/03/09 03:47:36;;;;;;;14.10;8.90;;;;;;;;;;5010744;28;20233;-77
2022/03/09 03:50:05;;;;;;;17.73;9.07;;;;;;;;;;5011570;28;20226;-77
2022/03/09 03:52:32;;;;;;;12.87;8.63;;;;;;;;;;5011595;28;20325;-76
2022/03/09 03:54:59;;;;;;;12.07;8.37;;;;;;;;;;5011529;28;20293;-76
2022/03/09 03:57:27;;;;;;;12.90;8.40;;;;;;;;;;5007162;28;20317;-76
2022/03/09 03:59:54;;;;;;;14.03;9.07;;;;;;;;;;5013995;28;20202;-77
2022/03/09 04:02:21;;;;;;;11.83;8.83;;;;;;;;;;5015098;28;20231;-76
2022/03/09 04:04:50;;;;;;;14.83;8.83;;;;;;;;;;5015319;28;20199;-77
2022/03/09 04:07:19;;;;;;;13.33;8.13;;;;;;;;;;5014808;28;20206;-77
2022/03/09 04:09:47;;;;;;;12.30;8.87;;;;;;;;;;5015441;28;20206;-76
2022/03/09 04:12:14;;;;;;;13.23;8.40;;;;;;;;;;5014866;28;20231;-77
2022/03/09 04:14:41;;;;;;;13.70;9.67;;;;;;;;;;5015348;28;20286;-76
2022/03/09 04:17:08;;;;;;;11.70;8.80;;;;;;;;;;5014537;28;20226;-77
2022/03/09 04:19:36;;;;;;;12.03;8.13;;;;;;;;;;5016083;28;20382;-77
2022/03/09 04:22:03;;;;;;;11.37;7.97;;;;;;;;;;5016589;28;20796;-79
2022/03/09 04:24:32;;;;;;;10.53;8.47;;;;;;;;;;5016250;28;20274;-79
2022/03/09 04:26:59;;;;;;;13.10;8.17;;;;;;;;;;5015031;28;20213;-79
2022/03/09 04:29:26;;;;;;;13.27;8.50;;;;;;;;;;5016208;28;20209;-79
2022/03/09 04:31:53;;;;;;;13.80;9.07;;;;;;;;;;5016226;28;20226;-79
2022/03/09 04:34:21;;;;;;;13.03;8.37;;;;;;;;;;5016147;28;20213;-79
2022/03/09 04:36:48;;;;;;;13.23;8.43;;;;;;;;;;5015327;28;20260;-80
2022/03/09 04:39:15;;;;;;;13.93;8.43;;;;;;;;;;5013640;28;20231;-79
2022/03/09 04:41:44;;;;;;;14.43;8.40;;;;;;;;;;5015527;28;20310;-79
2022/03/09 04:44:11;;;;;;;14.10;8.60;;;;;;;;;;5014151;28;20293;-79
2022/03/09 04:46:39;;;;;;;15.23;8.57;;;;;;;;;;5015353;28;20290;-79
2022/03/09 04:49:06;;;;;;;12.77;8.20;;;;;;;;;;5015947;28;20209;-79
2022/03/09 04:51:36;;;;;;;14.37;9.07;;;;;;;;;;5015156;28;20230;-79
2022/03/09 04:54:03;;;;;;;10.87;8.27;;;;;;;;;;5014339;28;20194;-79
2022/03/09 04:56:30;;;;;;;12.73;8.53;;;;;;;;;;5014122;28;20226;-79
2022/03/09 04:58:59;;;;;;;16.57;9.13;;;;;;;;;;5014879;28;20230;-79
2022/03/09 05:01:26;;;;;;;11.27;8.30;;;;;;;;;;5014558;28;20234;-80
2022/03/09 05:03:53;;;;;;;12.47;8.40;;;;;;;;;;5010689;28;20195;-79
2022/03/09 05:06:21;;;;;;;12.27;8.93;;;;;;;;;;5014255;28;20332;-80
2022/03/09 05:08:48;;;;;;;15.47;9.47;;;;;;;;;;5014841;28;20219;-79
2022/03/09 05:11:15;;;;;;;13.07;8.53;;;;;;;;;;5022309;28;20225;-82
2022/03/09 05:13:42;;;;;;;12.90;8.50;;;;;;;;;;5025833;28;20209;-80
2022/03/09 05:16:11;;;;;;;15.93;9.30;;;;;;;;;;5010595;28;20290;-80
2022/03/09 05:18:40;;;;;;;12.57;8.60;;;;;;;;;;5013984;28;20245;-80
2022/03/09 05:21:08;;;;;;;13.27;8.50;;;;;;;;;;5012341;28;20233;-79
2022/03/09 05:23:35;;;;;;;13.13;8.97;;;;;;;;;;5014646;28;20301;-79
2022/03/09 05:26:02;;;;;;;12.30;8.47;;;;;;;;;;5010639;28;20286;-79
2022/03/09 05:28:30;;;;;;;13.90;8.40;;;;;;;;;;5012258;28;20278;-79
2022/03/09 05:30:57;;;;;;;16.13;9.33;;;;;;;;;;5011140;28;20258;-79
2022/03/09 05:33:26;;;;;;;12.47;8.57;;;;;;;;;;5011914;28;20195;-79
2022/03/09 05:35:53;;;;;;;13.73;9.03;;;;;;;;;;5012298;28;20262;-80
2022/03/09 05:38:20;;;;;;;17.03;9.30;;;;;;;;;;5013972;28;20209;-79
2022/03/09 05:40:47;;;;;;;10.77;8.77;;;;;;;;;;5012616;28;20246;-79
2022/03/09 05:43:15;;;;;;;14.10;9.37;;;;;;;;;;5014016;28;20213;-79
2022/03/09 05:45:42;;;;;;;13.73;8.60;;;;;;;;;;5013133;28;20298;-79
2022/03/09 05:48:09;;;;;;;13.30;8.77;;;;;;;;;;5013708;28;20218;-80
2022/03/09 05:50:38;;;;;;;13.80;8.63;;;;;;;;;;5013721;28;20293;-79
2022/03/09 05:53:05;;;;;;;14.00;8.90;;;;;;;;;;5013720;28;20209;-80
2022/03/09 05:55:33;;;;;;;18.17;9.30;;;;;;;;;;5015609;28;20244;-79
2022/03/09 05:58:00;;;;;;;12.87;8.83;;;;;;;;;;5013634;28;20218;-80
2022/03/09 06:00:27;;;;;;;14.07;9.23;;;;;;;;;;5014692;28;20214;-80
2022/03/09 06:02:55;;;;;;;17.80;9.70;;;;;;;;;;5014654;28;20241;-80
2022/03/09 06:05:22;;;;;;;17.97;9.87;;;;;;;;;;5013757;28;20304;-79
2022/03/09 06:07:51;;;;;;;17.53;9.03;;;;;;;;;;5013935;28;20206;-79
2022/03/09 06:10:18;;;;;;;14.70;9.67;;;;;;;;;;5014013;28;20198;-80
2022/03/09 06:12:45;;;;;;;16.40;9.90;;;;;;;;;;5011873;28;20214;-77
2022/03/09 06:15:13;;;;;;;17.03;10.43;;;;;;;;;;5008296;28;20201;-77
2022/03/09 06:17:44;;;;;;;13.80;9.63;;;;;;;;;;5010326;28;20241;-80
2022/03/09 06:20:13;;;;;;;17.57;9.80;;;;;;;;;;5010647;28;20214;-78
2022/03/09 06:22:40;;;;;;;20.17;10.23;;;;;;;;;;5009372;28;20234;-78
2022/03/09 06:25:09;;;;;;;14.83;9.90;;;;;;;;;;5010343;28;20209;-79
2022/03/09 06:27:42;;;;;;;18.43;10.20;;;;;;;;;;5008798;28;20202;-77
2022/03/09 06:30:10;;;;;;;17.03;9.83;;;;;;;;;;5011532;28;20198;-79
2022/03/09 06:32:37;;;;;;;16.17;9.57;;;;;;;;;;5011553;28;20222;-79
2022/03/09 06:35:06;;;;;;;17.40;10.07;;;;;;;;;;5013813;28;20241;-80
2022/03/09 06:37:33;;;;;;;23.07;11.27;;;;;;;;;;5013015;28;20225;-79
2022/03/09 06:40:01;;;;;;;17.93;9.97;;;;;;;;;;5013518;28;20210;-80
2022/03/09 06:42:30;;;;;;;16.83;9.60;;;;;;;;;;5012492;28;20240;-81
2022/03/09 06:44:57;;;;;;;14.10;9.70;;;;;;;;;;5011855;28;20209;-79
2022/03/09 06:47:25;;;;;;;16.30;10.07;;;;;;;;;;5014338;28;20207;-79
2022/03/09 06:49:53;;;;;;;16.90;10.60;;;;;;;;;;5019510;28;20237;-82
2022/03/09 06:52:20;;;;;;;19.33;10.77;;;;;;;;;;5017724;28;20229;-84
2022/03/09 06:54:48;;;;;;;20.27;10.20;;;;;;;;;;5015067;28;20229;-79
2022/03/09 06:57:15;;;;;;;17.33;11.40;;;;;;;;;;5010927;28;20317;-79
2022/03/09 06:59:46;;;;;;;17.00;10.77;;;;;;;;;;5011598;28;20238;-78
2022/03/09 07:02:13;;;;;;;14.63;9.90;;;;;;;;;;5011019;28;20226;-78
2022/03/09 07:04:40;;;;;;;17.83;10.60;;;;;;;;;;5011046;28;20281;-78
2022/03/09 07:07:08;;;;;;;21.83;10.83;;;;;;;;;;5010837;28;20277;-78
2022/03/09 07:09:35;;;;;;;14.27;9.80;;;;;;;;;;5011931;28;20203;-79
2022/03/09 07:12:02;;;;;;;17.27;10.13;;;;;;;;;;5009485;28;20268;-79
2022/03/09 07:14:29;;;;;;;12.73;9.60;;;;;;;;;;5011565;28;20230;-79
2022/03/09 07:16:58;;;;;;;14.27;9.70;;;;;;;;;;5011336;28;20222;-79
2022/03/09 07:19:25;;;;;;;15.40;10.43;;;;;;;;;;5011466;28;20214;-79
2022/03/09 07:21:53;;;;;;;13.77;10.23;;;;;;;;;;5012913;28;20320;-79
2022/03/09 07:24:21;;;;;;;18.40;10.40;;;;;;;;;;5011714;28;20203;-79
2022/03/09 07:26:48;;;;;;;18.60;13.33;;;;;;;;;;5011149;28;20198;-78
2022/03/09 07:29:17;;;;;;;18.60;12.13;;;;;;;;;;5008857;28;20258;-80
2022/03/09 07:31:44;;;;;;;18.07;11.90;;;;;;;;;;5012123;28;20321;-77
2022/03/09 07:34:13;;;;;;;15.10;11.00;;;;;;;;;;5012779;28;20206;-78
2022/03/09 07:36:40;;;;;;;16.23;11.27;;;;;;;;;;5013091;28;20238;-78
2022/03/09 07:39:09;;;;;;;15.43;10.70;;;;;;;;;;5016232;28;20206;-77
2022/03/09 07:41:36;;;;;;;13.37;10.23;;;;;;;;;;5013760;28;20279;-77
2022/03/09 07:44:04;;;;;;;14.03;9.63;;;;;;;;;;5015900;28;20199;-77
2022/03/09 07:46:31;;;;;;;13.23;10.13;;;;;;;;;;5014981;28;20294;-77
2022/03/09 07:48:58;;;;;;;18.73;11.40;;;;;;;;;;5010964;28;20291;-78
2022/03/09 07:51:27;;;;;;;13.23;10.13;;;;;;;;;;5002725;28;20305;-76
2022/03/09 07:53:54;;;;;;;14.80;10.80;;;;;;;;;;5010969;28;20223;-78
2022/03/09 07:56:21;;;;;;;16.70;11.37;;;;;;;;;;5015513;28;20299;-78
2022/03/09 07:58:49;;;;;;;14.30;11.20;;;;;;;;;;5016297;28;20229;-81
2022/03/09 08:01:16;;;;;;;17.13;11.17;;;;;;;;;;5016477;28;20249;-82
2022/03/09 08:03:49;;;;;;;13.50;10.80;;;;;;;;;;5016712;28;20286;-78
2022/03/09 08:06:16;;;;;;;15.87;11.40;;;;;;;;;;5017098;28;20765;-81
2022/03/09 08:08:45;;;;;;;18.80;12.50;;;;;;;;;;5013930;28;20210;-81
2022/03/09 08:11:13;;;;;;;18.30;12.73;;;;;;;;;;5014194;28;20646;-79
2022/03/09 08:13:40;;;;;;;14.03;11.07;;;;;;;;;;5015296;28;20226;-80
2022/03/09 08:16:08;;;;;;;15.47;11.33;;;;;;;;;;5010552;28;20291;-79
2022/03/09 08:18:35;;;;;;;22.93;15.13;;;;;;;;;;5013540;28;20254;-79
2022/03/09 08:30:18;;;;;;;13.23;9.83;;;;;;;;;;4994781;28;20225;-78
2022/03/09 08:32:45;;;;;;;14.60;9.70;;;;;;;;;;5012782;28;20206;-79
2022/03/09 08:35:18;;;;;;;13.03;9.93;;;;;;;;;;5014146;28;20206;-79
2022/03/09 08:37:46;;;;;;;14.33;9.57;;;;;;;;;;5007337;28;20296;-79
2022/03/09 08:40:13;;;;;;;17.30;9.63;;;;;;;;;;5014182;28;20198;-79
2022/03/09 08:42:41;;;;;;;17.40;9.67;;;;;;;;;;5014545;28;20234;-79
2022/03/09 08:45:08;;;;;;;13.80;9.93;;;;;;;;;;5015053;28;20241;-78
2022/03/09 08:47:39;;;;;;;14.47;9.97;;;;;;;;;;5015348;28;20266;-79
2022/03/09 08:50:07;;;;;;;14.33;9.40;;;;;;;;;;5013697;28;20229;-78
2022/03/09 08:52:34;;;;;;;11.10;9.17;;;;;;;;;;5014739;28;20233;-78
2022/03/09 08:55:05;;;;;;;14.37;9.37;;;;;;;;;;5010656;28;20202;-78
2022/03/09 08:57:38;;;;;;;12.77;8.70;;;;;;;;;;5012035;28;20237;-79
2022/03/09 09:00:09;;;;;;;11.30;8.63;;;;;;;;;;5012053;28;20289;-78
2022/03/09 09:02:38;;;;;;;11.93;9.30;;;;;;;;;;5011434;28;20227;-78
2022/03/09 09:05:09;;;;;;;11.53;9.50;;;;;;;;;;5013494;28;20247;-78
2022/03/09 09:07:36;;;;;;;11.67;9.13;;;;;;;;;;5013067;28;20209;-78
2022/03/09 09:10:04;;;;;;;10.50;8.97;;;;;;;;;;5013038;28;20283;-79
2022/03/09 09:12:32;;;;;;;13.37;9.07;;;;;;;;;;5013396;28;20235;-80
2022/03/09 09:14:59;;;;;;;11.23;9.30;;;;;;;;;;5012202;28;20229;-79
2022/03/09 09:17:32;;;;;;;11.80;9.47;;;;;;;;;;5010057;28;20218;-80
2022/03/09 09:20:00;;;;;;;15.13;10.00;;;;;;;;;;5013217;28;20298;-78
2022/03/09 09:22:30;;;;;;;10.97;9.37;;;;;;;;;;5012657;28;20252;-79
2022/03/09 09:24:57;;;;;;;12.13;9.30;;;;;;;;;;5013350;28;20216;-79
2022/03/09 09:27:25;;;;;;;11.80;9.03;;;;;;;;;;5012881;28;20653;-81
2022/03/09 09:29:52;;;;;;;13.23;10.20;;;;;;;;;;5015621;28;20228;-79
2022/03/09 09:32:19;;;;;;;13.13;9.80;;;;;;;;;;5013281;28;20226;-80
2022/03/09 09:34:46;;;;;;;13.67;9.63;;;;;;;;;;5014789;28;20273;-80
2022/03/09 09:37:17;;;;;;;13.53;9.60;;;;;;;;;;5012985;28;20199;-79
2022/03/09 09:39:45;;;;;;;15.17;9.53;;;;;;;;;;5013996;28;20203;-79
2022/03/09 09:42:15;;;;;;;10.60;8.83;;;;;;;;;;5013718;28;20254;-80
2022/03/09 09:44:44;;;;;;;10.23;9.07;;;;;;;;;;5014074;28;20238;-80
2022/03/09 09:47:14;;;;;;;12.67;9.73;;;;;;;;;;5013210;28;20222;-79
2022/03/09 09:49:44;;;;;;;12.13;9.63;;;;;;;;;;5014023;28;20218;-79
2022/03/09 09:52:13;;;;;;;12.80;10.03;;;;;;;;;;5013619;28;20289;-79
2022/03/09 09:54:41;;;;;;;12.10;9.53;;;;;;;;;;5013346;28;20210;-80
2022/03/09 09:57:09;;;;;;;11.70;9.30;;;;;;;;;;5009572;28;20268;-79
2022/03/09 09:59:42;;;;;;;13.03;10.20;;;;;;;;;;5013675;28;20242;-80
2022/03/09 10:02:10;;;;;;;11.87;9.10;;;;;;;;;;5013851;28;20230;-79
2022/03/09 10:04:50;;;;;;;12.03;9.93;;;;;;;;;;5013846;28;20206;-83
2022/03/09 10:07:21;;;;;;;13.07;9.90;;;;;;;;;;5007959;28;20209;-79
2022/03/09 10:09:52;;;;;;;12.67;9.50;;;;;;;;;;5012815;28;20230;-79
2022/03/09 10:21:40;;;;;;;12.33;10.23;;;;;;;;;;4881115;22;20210;-82
2022/03/09 10:24:11;;;;;;;16.43;10.33;;;;;;;;;;5023784;28;20317;-84
2022/03/09 10:26:48;;;;;;;13.63;9.97;;;;;;;;;;5013589;28;20206;-85
2022/03/09 10:29:21;;;;;;;11.87;9.73;;;;;;;;;;5018398;28;20217;-76
2022/03/09 10:31:59;;;;;;;13.27;9.70;;;;;;;;;;5010574;28;20302;-76
2022/03/09 10:34:29;;;;;;;11.07;9.73;;;;;;;;;;5009816;28;20206;-77
2022/03/09 10:37:02;;;;;;;11.87;10.60;;;;;;;;;;5009201;28;20207;-75
2022/03/09 10:39:31;;;;;;;11.43;9.43;;;;;;;;;;5007045;28;20281;-77
2022/03/09 10:42:02;;;;;;;16.67;11.17;;;;;;;;;;5009933;28;20222;-77
2022/03/09 10:44:43;;;;;;;13.80;10.90;;;;;;;;;;5010590;28;20669;-78
2022/03/09 10:47:14;;;;;;;13.67;10.37;;;;;;;;;;5009159;28;20248;-77
2022/03/09 10:49:41;;;;;;;16.63;11.60;;;;;;;;;;5012092;28;20197;-77
2022/03/09 10:52:11;;;;;;;13.53;10.93;;;;;;;;;;5012403;28;20238;-77
2022/03/09 10:54:39;;;;;;;11.70;10.37;;;;;;;;;;5012610;28;20201;-77
2022/03/09 10:57:09;;;;;;;12.60;10.80;;;;;;;;;;5012674;28;20222;-78
2022/03/09 10:59:46;;;;;;;16.13;10.67;;;;;;;;;;5013476;28;20218;-77
2022/03/09 11:02:16;;;;;;;14.40;10.50;;;;;;;;;;5011459;28;20226;-77
2022/03/09 11:04:43;;;;;;;14.37;11.13;;;;;;;;;;5006558;28;20256;-77
2022/03/09 11:07:11;;;;;;;14.53;11.10;;;;;;;;;;5012378;28;20294;-77
2022/03/09 11:09:38;;;;;;;15.73;11.43;;;;;;;;;;5011797;28;20202;-77
2022/03/09 11:12:06;;;;;;;14.03;11.63;;;;;;;;;;5008965;28;20253;-79
2022/03/09 11:14:35;;;;;;;14.10;11.30;;;;;;;;;;5009358;28;20272;-76
2022/03/09 11:17:03;;;;;;;15.60;11.63;;;;;;;;;;5010253;28;20199;-76
2022/03/09 11:19:30;;;;;;;14.30;11.60;;;;;;;;;;5009476;28;20221;-78
2022/03/09 11:22:06;;;;;;;13.97;11.70;;;;;;;;;;5009888;28;20300;-82
2022/03/09 11:24:39;;;;;;;13.50;10.97;;;;;;;;;;5011210;28;20218;-77
2022/03/09 11:27:10;;;;;;;14.63;11.13;;;;;;;;;;5006914;28;20199;-78
2022/03/09 11:29:39;;;;;;;12.77;10.83;;;;;;;;;;5005853;28;20210;-76
2022/03/09 11:32:07;;;;;;;14.17;10.80;;;;;;;;;;5006180;28;20226;-78
2022/03/09 11:34:39;;;;;;;14.27;10.90;;;;;;;;;;5008056;28;20294;-76
2022/03/09 11:37:07;;;;;;;12.83;11.33;;;;;;;;;;5008864;28;20206;-76
2022/03/09 11:39:35;;;;;;;13.87;11.57;;;;;;;;;;5009981;28;20249;-76
2022/03/09 11:42:21;;;;;;;14.67;11.80;;;;;;;;;;5009489;28;20242;-78
2022/03/09 11:44:50;;;;;;;14.07;11.50;;;;;;;;;;5010617;28;20214;-76
2022/03/09 11:47:20;;;;;;;15.03;12.00;;;;;;;;;;5009615;28;20210;-76
2022/03/09 11:50:05;;;;;;;14.87;11.73;;;;;;;;;;5011572;28;20242;-76
2022/03/09 11:52:32;;;;;;;15.77;11.80;;;;;;;;;;5007868;28;20230;-77
2022/03/09 11:55:01;;;;;;;14.40;11.10;;;;;;;;;;5011719;28;20761;-77
2022/03/09 11:57:51;;;;;;;13.17;10.70;;;;;;;;;;5010678;28;20282;-78
2022/03/09 12:00:22;;;;;;;14.63;10.93;;;;;;;;;;5013043;28;20210;-77
2022/03/09 12:02:51;;;;;;;13.70;11.50;;;;;;;;;;5007044;28;20316;-77
2022/03/09 12:05:34;;;;;;;12.40;11.00;;;;;;;;;;5012643;28;20222;-77
2022/03/09 12:08:05;;;;;;;13.43;10.83;;;;;;;;;;5011691;28;20292;-78
2022/03/09 12:10:45;;;;;;;14.00;11.07;;;;;;;;;;5009963;28;20202;-77
2022/03/09 12:13:17;;;;;;;13.70;11.20;;;;;;;;;;5001232;28;20230;-77
2022/03/09 12:16:17;;;;;;;15.33;11.37;;;;;;;;;;5001389;28;20210;-77
2022/03/09 12:18:47;;;;;;;13.90;11.53;;;;;;;;;;5008554;28;20229;-77
2022/03/09 12:21:15;;;;;;;12.83;11.03;;;;;;;;;;5013973;28;20221;-76
2022/03/09 12:24:01;;;;;;;15.17;12.40;;;;;;;;;;5012462;28;20276;-80
2022/03/09 12:26:41;;;;;;;15.07;11.00;;;;;;;;;;5011755;28;20260;-76
2022/03/09 12:29:23;;;;;;;14.10;11.20;;;;;;;;;;5010965;28;20202;-77
2022/03/09 12:32:02;;;;;;;14.50;11.40;;;;;;;;;;5005332;28;20231;-77
2022/03/09 12:34:32;;;;;;;13.23;10.97;;;;;;;;;;5006315;28;20206;-78
2022/03/09 12:37:01;;;;;;;17.27;11.50;;;;;;;;;;5009117;28;20203;-78
2022/03/09 12:39:28;;;;;;;15.07;11.20;;;;;;;;;;5000989;28;20233;-77
2022/03/09 12:41:57;;;;;;;13.73;10.67;;;;;;;;;;5006080;28;20230;-77
2022/03/09 12:44:25;;;;;;;15.00;11.37;;;;;;;;;;5004769;28;20202;-77
2022/03/09 12:46:53;;;;;;;13.60;11.63;;;;;;;;;;5013988;28;20286;-77
2022/03/09 12:49:21;;;;;;;13.70;11.07;;;;;;;;;;5014319;28;20213;-77
2022/03/09 12:51:53;;;;;;;13.87;11.10;;;;;;;;;;5013169;28;20285;-76
2022/03/09 12:54:41;;;;;;;13.57;10.57;;;;;;;;;;5014861;28;20229;-79
2022/03/09 12:57:09;;;;;;;13.97;10.23;;;;;;;;;;5010655;28;20210;-77
2022/03/09 12:59:37;;;;;;;12.57;10.30;;;;;;;;;;5015135;28;20218;-76
2022/03/09 13:02:04;;;;;;;13.37;10.60;;;;;;;;;;5014833;28;20250;-76
2022/03/09 13:04:32;;;;;;;12.17;10.30;;;;;;;;;;5013727;28;20199;-75
2022/03/09 13:07:11;;;;;;;13.37;10.90;;;;;;;;;;5012560;28;20238;-75
2022/03/09 13:09:41;;;;;;;12.90;9.90;;;;;;;;;;5013778;28;20198;-76
2022/03/09 13:12:10;;;;;;;12.83;10.83;;;;;;;;;;5009514;28;20301;-76
2022/03/09 13:14:37;;;;;;;13.07;10.63;;;;;;;;;;5009869;28;20203;-76
2022/03/09 13:17:06;;;;;;;14.13;11.03;;;;;;;;;;5010298;28;20209;-76
2022/03/09 13:19:33;;;;;;;12.87;10.40;;;;;;;;;;5011290;28;20317;-76
2022/03/09 13:22:00;;;;;;;12.23;10.20;;;;;;;;;;5017045;28;20230;-76
2022/03/09 13:24:30;;;;;;;11.50;9.67;;;;;;;;;;5026162;28;20234;-76
2022/03/09 13:26:58;;;;;;;11.33;10.13;;;;;;;;;;5018091;28;20294;-76
2022/03/09 13:29:28;;;;;;;11.60;10.27;;;;;;;;;;5022648;28;20190;-76
2022/03/09 13:31:57;;;;;;;12.70;10.37;;;;;;;;;;5014911;28;20219;-77
2022/03/09 13:34:26;;;;;;;12.07;10.77;;;;;;;;;;5024835;28;20203;-76
2022/03/09 13:37:00;;;;;;;13.17;10.30;;;;;;;;;;5027720;28;20214;-77
2022/03/09 13:39:39;;;;;;;12.10;10.13;;;;;;;;;;5019612;28;20243;-76
2022/03/09 13:42:07;;;;;;;12.63;10.17;;;;;;;;;;5021971;28;20293;-77
2022/03/09 13:44:35;;;;;;;14.03;11.17;;;;;;;;;;5014751;28;20265;-77
2022/03/09 13:47:04;;;;;;;11.47;10.20;;;;;;;;;;5014091;28;20198;-76
2022/03/09 13:49:45;;;;;;;12.17;9.80;;;;;;;;;;5012242;28;20220;-77
2022/03/09 13:52:23;;;;;;;12.67;10.10;;;;;;;;;;5008443;28;20264;-76
2022/03/09 13:54:52;;;;;;;14.47;10.63;;;;;;;;;;5012683;28;20199;-77
2022/03/09 13:57:29;;;;;;;11.60;9.97;;;;;;;;;;5009916;28;20203;-77
2022/03/09 13:59:57;;;;;;;19.27;13.80;;;;;;;;;;5011814;28;20222;-77
2022/03/09 14:02:25;;;;;;;14.70;10.73;;;;;;;;;;5009168;28;20223;-77
2022/03/09 14:04:53;;;;;;;11.83;9.60;;;;;;;;;;5012044;28;20314;-76
2022/03/09 14:07:21;;;;;;;12.97;9.60;;;;;;;;;;5010591;28;20203;-77
2022/03/09 14:10:07;;;;;;;10.97;9.40;;;;;;;;;;5005963;28;20207;-76
2022/03/09 14:12:39;;;;;;;10.67;9.57;;;;;;;;;;5012500;28;20222;-79
2022/03/09 14:15:07;;;;;;;13.07;10.23;;;;;;;;;;5012630;28;20234;-77
2022/03/09 14:17:35;;;;;;;14.20;9.93;;;;;;;;;;5012223;28;20252;-77
2022/03/09 14:20:02;;;;;;;9.77;8.70;;;;;;;;;;5012065;28;20262;-76
2022/03/09 14:22:39;;;;;;;10.10;8.33;;;;;;;;;;5009543;28;20673;-77
2022/03/09 14:25:07;;;;;;;9.37;8.33;;;;;;;;;;5007688;28;20284;-77
2022/03/09 14:27:34;;;;;;;9.97;9.00;;;;;;;;;;5007480;28;20206;-77
2022/03/09 14:30:04;;;;;;;10.30;8.63;;;;;;;;;;5010503;28;20198;-84
2022/03/09 14:32:31;;;;;;;10.80;8.53;;;;;;;;;;5007155;28;20230;-77
2022/03/09 14:34:59;;;;;;;9.97;8.43;;;;;;;;;;5011025;28;20287;-76
2022/03/09 14:37:26;;;;;;;9.63;8.07;;;;;;;;;;5011174;28;20210;-76
2022/03/09 14:39:53;;;;;;;10.17;8.27;;;;;;;;;;5012337;28;20339;-76
2022/03/09 14:42:21;;;;;;;10.77;8.80;;;;;;;;;;5012321;28;20231;-78
2022/03/09 14:44:48;;;;;;;10.10;8.87;;;;;;;;;;5012828;28;20314;-76
2022/03/09 14:47:17;;;;;;;10.63;8.83;;;;;;;;;;5012670;28;20257;-77
2022/03/09 14:49:44;;;;;;;9.87;8.43;;;;;;;;;;5012774;28;20206;-80
2022/03/09 14:52:12;;;;;;;8.90;8.00;;;;;;;;;;5009063;28;20222;-77
2022/03/09 14:54:41;;;;;;;10.07;8.03;;;;;;;;;;5013778;28;20664;-76
2022/03/09 14:57:10;;;;;;;9.17;8.27;;;;;;;;;;5016595;28;20206;-74